sensor_id;sensor_type;location;lat;lon;timestamp;P1;durP1;ratioP1;P2;durP2;ratioP2
37655;SDS011;23498;50.958;3.124;2024-03-23T00:54:30;40.28;;;24.23;;
37655;SDS011;23498;50.958;3.124;2024-03-23T00:56:56;47.13;;;24.15;;
37655;SDS011;23498;50.958;3.124;2024-03-23T00:59:22;48.90;;;24.98;;
37655;SDS011;23498;50.958;3.124;2024-03-23T01:01:52;47.30;;;24.45;;
37655;SDS011;23498;50.958;3.124;2024-03-23T01:04:18;43.95;;;23.52;;
37655;SDS011;23498;50.958;3.124;2024-03-23T01:06:44;42.78;;;24.00;;
37655;SDS011;23498;50.958;3.124;2024-03-23T01:09:10;45.05;;;25.15;;
37655;SDS011;23498;50.958;3.124;2024-03-23T01:11:36;44.15;;;24.00;;
37655;SDS011;23498;50.958;3.124;2024-03-23T01:14:02;44.67;;;23.05;;
37655;SDS011;23498;50.958;3.124;2024-03-23T01:16:28;41.05;;;23.55;;
37655;SDS011;23498;50.958;3.124;2024-03-23T01:18:54;40.50;;;22.80;;
37655;SDS011;23498;50.958;3.124;2024-03-23T01:21:21;40.67;;;22.92;;
37655;SDS011;23498;50.958;3.124;2024-03-23T01:23:47;41.90;;;21.98;;
37655;SDS011;23498;50.958;3.124;2024-03-23T01:26:13;37.92;;;21.38;;
37655;SDS011;23498;50.958;3.124;2024-03-23T01:28:39;41.20;;;21.33;;
37655;SDS011;23498;50.958;3.124;2024-03-23T01:31:05;40.20;;;21.33;;
37655;SDS011;23498;50.958;3.124;2024-03-23T01:33:31;35.15;;;20.90;;
37655;SDS011;23498;50.958;3.124;2024-03-23T01:35:57;39.10;;;21.13;;
37655;SDS011;23498;50.958;3.124;2024-03-23T01:38:23;36.35;;;19.52;;
37655;SDS011;23498;50.958;3.124;2024-03-23T01:40:49;34.20;;;20.10;;
37655;SDS011;23498;50.958;3.124;2024-03-23T01:43:22;32.00;;;19.15;;
37655;SDS011;23498;50.958;3.124;2024-03-23T01:45:48;36.58;;;18.88;;
37655;SDS011;23498;50.958;3.124;2024-03-23T01:48:14;33.63;;;18.70;;
37655;SDS011;23498;50.958;3.124;2024-03-23T01:50:40;32.97;;;18.00;;
37655;SDS011;23498;50.958;3.124;2024-03-23T01:53:06;32.95;;;16.67;;
37655;SDS011;23498;50.958;3.124;2024-03-23T01:55:33;29.70;;;16.05;;
37655;SDS011;23498;50.958;3.124;2024-03-23T01:57:59;31.65;;;15.05;;
37655;SDS011;23498;50.958;3.124;2024-03-23T02:00:25;26.75;;;14.80;;
37655;SDS011;23498;50.958;3.124;2024-03-23T02:02:53;24.50;;;12.77;;
37655;SDS011;23498;50.958;3.124;2024-03-23T02:05:19;23.33;;;12.43;;
37655;SDS011;23498;50.958;3.124;2024-03-23T02:07:45;19.33;;;11.07;;
37655;SDS011;23498;50.958;3.124;2024-03-23T02:10:12;23.35;;;11.30;;
37655;SDS011;23498;50.958;3.124;2024-03-23T02:12:38;24.17;;;10.23;;
37655;SDS011;23498;50.958;3.124;2024-03-23T02:15:04;19.92;;;9.13;;
37655;SDS011;23498;50.958;3.124;2024-03-23T02:17:33;19.17;;;9.65;;
37655;SDS011;23498;50.958;3.124;2024-03-23T02:19:59;14.98;;;7.15;;
37655;SDS011;23498;50.958;3.124;2024-03-23T02:22:25;19.13;;;8.02;;
37655;SDS011;23498;50.958;3.124;2024-03-23T02:24:59;13.82;;;6.35;;
37655;SDS011;23498;50.958;3.124;2024-03-23T02:27:25;16.45;;;5.80;;
37655;SDS011;23498;50.958;3.124;2024-03-23T02:29:51;10.55;;;5.05;;
37655;SDS011;23498;50.958;3.124;2024-03-23T02:32:17;12.40;;;5.22;;
37655;SDS011;23498;50.958;3.124;2024-03-23T02:34:43;16.55;;;5.05;;
37655;SDS011;23498;50.958;3.124;2024-03-23T02:37:12;12.85;;;5.13;;
37655;SDS011;23498;50.958;3.124;2024-03-23T02:39:39;11.27;;;4.40;;
37655;SDS011;23498;50.958;3.124;2024-03-23T02:42:05;12.23;;;4.90;;
37655;SDS011;23498;50.958;3.124;2024-03-23T02:44:31;15.05;;;4.95;;
37655;SDS011;23498;50.958;3.124;2024-03-23T02:46:57;14.35;;;4.90;;
37655;SDS011;23498;50.958;3.124;2024-03-23T02:49:23;13.00;;;4.50;;
37655;SDS011;23498;50.958;3.124;2024-03-23T02:51:49;12.23;;;4.15;;
37655;SDS011;23498;50.958;3.124;2024-03-23T02:54:15;12.82;;;4.15;;
37655;SDS011;23498;50.958;3.124;2024-03-23T02:56:41;12.35;;;4.63;;
37655;SDS011;23498;50.958;3.124;2024-03-23T02:59:07;13.73;;;3.38;;
37655;SDS011;23498;50.958;3.124;2024-03-23T03:01:33;11.70;;;3.13;;
37655;SDS011;23498;50.958;3.124;2024-03-23T03:04:00;15.88;;;2.90;;
37655;SDS011;23498;50.958;3.124;2024-03-23T03:06:26;10.00;;;2.80;;
37655;SDS011;23498;50.958;3.124;2024-03-23T03:08:52;11.30;;;3.58;;
37655;SDS011;23498;50.958;3.124;2024-03-23T03:11:19;8.65;;;2.83;;
37655;SDS011;23498;50.958;3.124;2024-03-23T03:13:45;14.45;;;3.33;;
37655;SDS011;23498;50.958;3.124;2024-03-23T03:16:11;10.68;;;3.15;;
37655;SDS011;23498;50.958;3.124;2024-03-23T03:18:37;13.48;;;3.67;;
37655;SDS011;23498;50.958;3.124;2024-03-23T03:21:05;8.32;;;3.20;;
37655;SDS011;23498;50.958;3.124;2024-03-23T03:23:35;11.85;;;2.80;;
37655;SDS011;23498;50.958;3.124;2024-03-23T03:26:01;10.13;;;2.53;;
37655;SDS011;23498;50.958;3.124;2024-03-23T03:28:27;9.65;;;3.55;;
37655;SDS011;23498;50.958;3.124;2024-03-23T03:30:55;13.13;;;2.83;;
37655;SDS011;23498;50.958;3.124;2024-03-23T03:33:21;11.82;;;2.75;;
37655;SDS011;23498;50.958;3.124;2024-03-23T03:35:47;12.50;;;2.50;;
37655;SDS011;23498;50.958;3.124;2024-03-23T03:38:14;13.70;;;2.85;;
37655;SDS011;23498;50.958;3.124;2024-03-23T03:40:41;14.35;;;2.80;;
37655;SDS011;23498;50.958;3.124;2024-03-23T03:43:07;15.25;;;2.53;;
37655;SDS011;23498;50.958;3.124;2024-03-23T03:45:33;11.27;;;2.90;;
37655;SDS011;23498;50.958;3.124;2024-03-23T03:47:59;13.18;;;2.40;;
37655;SDS011;23498;50.958;3.124;2024-03-23T03:50:25;10.15;;;2.33;;
37655;SDS011;23498;50.958;3.124;2024-03-23T03:52:51;14.93;;;3.33;;
37655;SDS011;23498;50.958;3.124;2024-03-23T03:55:17;10.48;;;2.40;;
37655;SDS011;23498;50.958;3.124;2024-03-23T03:57:43;11.88;;;2.63;;
37655;SDS011;23498;50.958;3.124;2024-03-23T04:00:09;12.65;;;2.53;;
37655;SDS011;23498;50.958;3.124;2024-03-23T04:02:39;14.15;;;2.95;;
37655;SDS011;23498;50.958;3.124;2024-03-23T04:05:05;11.60;;;2.70;;
37655;SDS011;23498;50.958;3.124;2024-03-23T04:07:33;15.35;;;2.88;;
37655;SDS011;23498;50.958;3.124;2024-03-23T04:09:59;12.52;;;3.03;;
37655;SDS011;23498;50.958;3.124;2024-03-23T04:12:25;11.32;;;3.22;;
37655;SDS011;23498;50.958;3.124;2024-03-23T04:14:51;11.93;;;2.83;;
37655;SDS011;23498;50.958;3.124;2024-03-23T04:17:17;14.27;;;2.90;;
37655;SDS011;23498;50.958;3.124;2024-03-23T04:19:44;14.77;;;2.83;;
37655;SDS011;23498;50.958;3.124;2024-03-23T04:22:10;13.63;;;3.17;;
37655;SDS011;23498;50.958;3.124;2024-03-23T04:24:36;16.48;;;2.97;;
37655;SDS011;23498;50.958;3.124;2024-03-23T04:27:02;15.43;;;3.50;;
37655;SDS011;23498;50.958;3.124;2024-03-23T04:29:28;13.40;;;3.50;;
37655;SDS011;23498;50.958;3.124;2024-03-23T04:31:54;15.77;;;3.60;;
37655;SDS011;23498;50.958;3.124;2024-03-23T04:34:20;16.70;;;3.47;;
37655;SDS011;23498;50.958;3.124;2024-03-23T04:36:47;12.57;;;3.55;;
37655;SDS011;23498;50.958;3.124;2024-03-23T04:39:13;25.42;;;4.22;;
37655;SDS011;23498;50.958;3.124;2024-03-23T04:41:39;13.48;;;3.47;;
37655;SDS011;23498;50.958;3.124;2024-03-23T04:44:05;14.52;;;3.10;;
37655;SDS011;23498;50.958;3.124;2024-03-23T04:46:31;10.32;;;2.92;;
37655;SDS011;23498;50.958;3.124;2024-03-23T04:48:57;9.30;;;2.55;;
37655;SDS011;23498;50.958;3.124;2024-03-23T04:51:23;11.35;;;2.60;;
37655;SDS011;23498;50.958;3.124;2024-03-23T04:53:50;13.95;;;3.08;;
37655;SDS011;23498;50.958;3.124;2024-03-23T04:56:16;11.35;;;2.85;;
37655;SDS011;23498;50.958;3.124;2024-03-23T04:58:42;10.73;;;2.88;;
37655;SDS011;23498;50.958;3.124;2024-03-23T05:01:09;10.18;;;2.65;;
37655;SDS011;23498;50.958;3.124;2024-03-23T05:03:35;12.68;;;2.42;;
37655;SDS011;23498;50.958;3.124;2024-03-23T05:06:01;13.43;;;2.78;;
37655;SDS011;23498;50.958;3.124;2024-03-23T05:08:27;13.18;;;2.42;;
37655;SDS011;23498;50.958;3.124;2024-03-23T05:10:53;12.88;;;2.25;;
37655;SDS011;23498;50.958;3.124;2024-03-23T05:13:19;15.75;;;2.72;;
37655;SDS011;23498;50.958;3.124;2024-03-23T05:15:50;8.40;;;2.28;;
37655;SDS011;23498;50.958;3.124;2024-03-23T05:18:16;16.20;;;2.90;;
37655;SDS011;23498;50.958;3.124;2024-03-23T05:20:42;16.70;;;2.80;;
37655;SDS011;23498;50.958;3.124;2024-03-23T05:23:09;11.98;;;2.92;;
37655;SDS011;23498;50.958;3.124;2024-03-23T05:25:35;10.48;;;2.53;;
37655;SDS011;23498;50.958;3.124;2024-03-23T05:28:01;12.15;;;2.90;;
37655;SDS011;23498;50.958;3.124;2024-03-23T05:30:27;12.43;;;2.40;;
37655;SDS011;23498;50.958;3.124;2024-03-23T05:32:53;11.73;;;2.63;;
37655;SDS011;23498;50.958;3.124;2024-03-23T05:35:20;16.50;;;3.28;;
37655;SDS011;23498;50.958;3.124;2024-03-23T05:37:46;12.45;;;2.75;;
37655;SDS011;23498;50.958;3.124;2024-03-23T05:40:12;9.48;;;2.58;;
37655;SDS011;23498;50.958;3.124;2024-03-23T05:42:40;12.35;;;2.50;;
37655;SDS011;23498;50.958;3.124;2024-03-23T05:45:06;11.43;;;3.08;;
37655;SDS011;23498;50.958;3.124;2024-03-23T05:47:33;9.40;;;2.53;;
37655;SDS011;23498;50.958;3.124;2024-03-23T05:49:59;10.40;;;2.33;;
37655;SDS011;23498;50.958;3.124;2024-03-23T05:52:26;12.70;;;2.88;;
37655;SDS011;23498;50.958;3.124;2024-03-23T05:54:55;11.05;;;2.63;;
37655;SDS011;23498;50.958;3.124;2024-03-23T05:57:21;9.90;;;3.25;;
37655;SDS011;23498;50.958;3.124;2024-03-23T05:59:47;14.77;;;3.17;;
37655;SDS011;23498;50.958;3.124;2024-03-23T06:02:13;11.80;;;2.60;;
37655;SDS011;23498;50.958;3.124;2024-03-23T06:04:39;13.98;;;2.95;;
37655;SDS011;23498;50.958;3.124;2024-03-23T06:07:05;14.60;;;2.67;;
37655;SDS011;23498;50.958;3.124;2024-03-23T06:09:32;12.18;;;3.63;;
37655;SDS011;23498;50.958;3.124;2024-03-23T06:11:58;9.20;;;2.33;;
37655;SDS011;23498;50.958;3.124;2024-03-23T06:14:24;11.98;;;3.05;;
37655;SDS011;23498;50.958;3.124;2024-03-23T06:16:50;11.50;;;2.80;;
37655;SDS011;23498;50.958;3.124;2024-03-23T06:19:16;13.30;;;2.92;;
37655;SDS011;23498;50.958;3.124;2024-03-23T06:21:43;12.32;;;2.80;;
37655;SDS011;23498;50.958;3.124;2024-03-23T06:24:10;10.40;;;2.90;;
37655;SDS011;23498;50.958;3.124;2024-03-23T06:26:36;13.93;;;2.95;;
37655;SDS011;23498;50.958;3.124;2024-03-23T06:29:02;12.63;;;3.00;;
37655;SDS011;23498;50.958;3.124;2024-03-23T06:31:30;12.07;;;2.55;;
37655;SDS011;23498;50.958;3.124;2024-03-23T06:33:56;10.77;;;2.72;;
37655;SDS011;23498;50.958;3.124;2024-03-23T06:36:22;9.95;;;2.28;;
37655;SDS011;23498;50.958;3.124;2024-03-23T06:38:48;13.98;;;2.40;;
37655;SDS011;23498;50.958;3.124;2024-03-23T06:41:14;11.88;;;2.90;;
37655;SDS011;23498;50.958;3.124;2024-03-23T06:43:40;8.23;;;2.38;;
37655;SDS011;23498;50.958;3.124;2024-03-23T06:46:06;11.55;;;2.55;;
37655;SDS011;23498;50.958;3.124;2024-03-23T06:48:32;11.32;;;2.50;;
37655;SDS011;23498;50.958;3.124;2024-03-23T06:50:59;8.00;;;2.28;;
37655;SDS011;23498;50.958;3.124;2024-03-23T06:53:25;9.25;;;2.13;;
37655;SDS011;23498;50.958;3.124;2024-03-23T06:55:51;7.80;;;2.25;;
37655;SDS011;23498;50.958;3.124;2024-03-23T06:58:19;10.75;;;2.30;;
37655;SDS011;23498;50.958;3.124;2024-03-23T07:00:45;8.70;;;2.00;;
37655;SDS011;23498;50.958;3.124;2024-03-23T07:03:11;12.48;;;2.70;;
37655;SDS011;23498;50.958;3.124;2024-03-23T07:05:37;9.45;;;2.55;;
37655;SDS011;23498;50.958;3.124;2024-03-23T07:08:06;13.05;;;2.10;;
37655;SDS011;23498;50.958;3.124;2024-03-23T07:10:33;9.32;;;2.03;;
37655;SDS011;23498;50.958;3.124;2024-03-23T07:12:59;8.57;;;2.20;;
37655;SDS011;23498;50.958;3.124;2024-03-23T07:15:25;10.93;;;2.72;;
37655;SDS011;23498;50.958;3.124;2024-03-23T07:17:51;9.18;;;2.13;;
37655;SDS011;23498;50.958;3.124;2024-03-23T07:20:17;8.25;;;2.17;;
37655;SDS011;23498;50.958;3.124;2024-03-23T07:22:45;7.70;;;1.95;;
37655;SDS011;23498;50.958;3.124;2024-03-23T07:25:12;9.68;;;2.13;;
37655;SDS011;23498;50.958;3.124;2024-03-23T07:27:38;10.15;;;2.42;;
37655;SDS011;23498;50.958;3.124;2024-03-23T07:30:04;11.80;;;2.60;;
37655;SDS011;23498;50.958;3.124;2024-03-23T07:32:30;10.13;;;2.40;;
37655;SDS011;23498;50.958;3.124;2024-03-23T07:34:57;10.20;;;2.60;;
37655;SDS011;23498;50.958;3.124;2024-03-23T07:37:22;11.27;;;2.83;;
37655;SDS011;23498;50.958;3.124;2024-03-23T07:39:49;8.75;;;2.75;;
37655;SDS011;23498;50.958;3.124;2024-03-23T07:42:15;11.90;;;3.00;;
37655;SDS011;23498;50.958;3.124;2024-03-23T07:44:41;11.55;;;2.20;;
37655;SDS011;23498;50.958;3.124;2024-03-23T07:47:07;7.47;;;1.88;;
37655;SDS011;23498;50.958;3.124;2024-03-23T07:49:33;12.85;;;2.25;;
37655;SDS011;23498;50.958;3.124;2024-03-23T07:51:59;6.50;;;1.42;;
37655;SDS011;23498;50.958;3.124;2024-03-23T07:54:25;7.85;;;1.90;;
37655;SDS011;23498;50.958;3.124;2024-03-23T07:56:51;6.40;;;1.95;;
37655;SDS011;23498;50.958;3.124;2024-03-23T07:59:17;11.07;;;2.10;;
37655;SDS011;23498;50.958;3.124;2024-03-23T08:01:44;8.05;;;2.05;;
37655;SDS011;23498;50.958;3.124;2024-03-23T08:04:10;9.48;;;2.20;;
37655;SDS011;23498;50.958;3.124;2024-03-23T08:06:36;8.20;;;2.20;;
37655;SDS011;23498;50.958;3.124;2024-03-23T08:09:03;10.18;;;2.15;;
37655;SDS011;23498;50.958;3.124;2024-03-23T08:11:30;7.28;;;2.30;;
37655;SDS011;23498;50.958;3.124;2024-03-23T08:13:56;10.25;;;2.22;;
37655;SDS011;23498;50.958;3.124;2024-03-23T08:16:23;8.82;;;2.25;;
37655;SDS011;23498;50.958;3.124;2024-03-23T08:18:52;10.05;;;2.20;;
37655;SDS011;23498;50.958;3.124;2024-03-23T08:21:18;9.50;;;1.65;;
37655;SDS011;23498;50.958;3.124;2024-03-23T08:23:44;10.30;;;2.20;;
37655;SDS011;23498;50.958;3.124;2024-03-23T08:26:11;8.75;;;2.45;;
37655;SDS011;23498;50.958;3.124;2024-03-23T08:28:38;4.57;;;1.40;;
37655;SDS011;23498;50.958;3.124;2024-03-23T08:31:05;13.02;;;2.05;;
37655;SDS011;23498;50.958;3.124;2024-03-23T08:33:31;8.52;;;2.15;;
37655;SDS011;23498;50.958;3.124;2024-03-23T08:35:58;6.07;;;1.65;;
37655;SDS011;23498;50.958;3.124;2024-03-23T08:38:24;6.72;;;1.90;;
37655;SDS011;23498;50.958;3.124;2024-03-23T08:43:23;11.43;;;2.65;;
37655;SDS011;23498;50.958;3.124;2024-03-23T08:45:49;5.97;;;1.80;;
37655;SDS011;23498;50.958;3.124;2024-03-23T08:48:15;9.88;;;2.30;;
37655;SDS011;23498;50.958;3.124;2024-03-23T08:50:41;10.10;;;2.60;;
37655;SDS011;23498;50.958;3.124;2024-03-23T08:53:08;8.82;;;2.30;;
37655;SDS011;23498;50.958;3.124;2024-03-23T08:55:34;9.57;;;2.00;;
37655;SDS011;23498;50.958;3.124;2024-03-23T08:58:00;12.50;;;3.10;;
37655;SDS011;23498;50.958;3.124;2024-03-23T09:00:26;8.60;;;2.38;;
37655;SDS011;23498;50.958;3.124;2024-03-23T09:02:52;5.28;;;2.40;;
37655;SDS011;23498;50.958;3.124;2024-03-23T09:05:18;11.48;;;3.03;;
37655;SDS011;23498;50.958;3.124;2024-03-23T09:07:44;11.38;;;3.42;;
37655;SDS011;23498;50.958;3.124;2024-03-23T09:10:10;8.27;;;2.47;;
37655;SDS011;23498;50.958;3.124;2024-03-23T09:12:36;7.75;;;2.40;;
37655;SDS011;23498;50.958;3.124;2024-03-23T09:15:02;10.10;;;2.53;;
37655;SDS011;23498;50.958;3.124;2024-03-23T09:17:29;9.95;;;2.53;;
37655;SDS011;23498;50.958;3.124;2024-03-23T09:19:55;5.57;;;1.95;;
37655;SDS011;23498;50.958;3.124;2024-03-23T09:22:21;5.68;;;2.03;;
37655;SDS011;23498;50.958;3.124;2024-03-23T09:24:47;10.05;;;2.65;;
37655;SDS011;23498;50.958;3.124;2024-03-23T09:27:13;11.00;;;2.55;;
37655;SDS011;23498;50.958;3.124;2024-03-23T09:29:39;8.98;;;2.13;;
37655;SDS011;23498;50.958;3.124;2024-03-23T09:32:05;8.45;;;2.35;;
37655;SDS011;23498;50.958;3.124;2024-03-23T09:34:31;9.77;;;2.60;;
37655;SDS011;23498;50.958;3.124;2024-03-23T09:36:57;10.10;;;2.95;;
37655;SDS011;23498;50.958;3.124;2024-03-23T09:39:23;7.47;;;2.17;;
37655;SDS011;23498;50.958;3.124;2024-03-23T09:41:49;7.95;;;2.17;;
37655;SDS011;23498;50.958;3.124;2024-03-23T09:44:15;17.52;;;2.78;;
37655;SDS011;23498;50.958;3.124;2024-03-23T09:46:41;7.30;;;2.28;;
37655;SDS011;23498;50.958;3.124;2024-03-23T09:49:07;9.05;;;2.50;;
37655;SDS011;23498;50.958;3.124;2024-03-23T09:51:35;6.50;;;1.80;;
37655;SDS011;23498;50.958;3.124;2024-03-23T09:54:01;7.25;;;1.40;;
37655;SDS011;23498;50.958;3.124;2024-03-23T09:56:27;6.45;;;1.98;;
37655;SDS011;23498;50.958;3.124;2024-03-23T09:59:00;8.02;;;1.23;;
37655;SDS011;23498;50.958;3.124;2024-03-23T10:01:29;4.13;;;1.20;;
37655;SDS011;23498;50.958;3.124;2024-03-23T10:03:55;9.50;;;2.40;;
37655;SDS011;23498;50.958;3.124;2024-03-23T10:06:21;5.97;;;1.90;;
37655;SDS011;23498;50.958;3.124;2024-03-23T10:08:50;6.53;;;1.50;;
37655;SDS011;23498;50.958;3.124;2024-03-23T10:11:16;6.35;;;1.38;;
37655;SDS011;23498;50.958;3.124;2024-03-23T10:13:43;7.35;;;1.60;;
37655;SDS011;23498;50.958;3.124;2024-03-23T10:16:11;6.43;;;1.23;;
37655;SDS011;23498;50.958;3.124;2024-03-23T10:18:37;5.68;;;1.45;;
37655;SDS011;23498;50.958;3.124;2024-03-23T10:23:33;7.03;;;1.30;;
37655;SDS011;23498;50.958;3.124;2024-03-23T10:26:12;5.68;;;1.67;;
37655;SDS011;23498;50.958;3.124;2024-03-23T10:28:58;4.53;;;1.10;;
37655;SDS011;23498;50.958;3.124;2024-03-23T10:31:26;5.18;;;1.50;;
37655;SDS011;23498;50.958;3.124;2024-03-23T10:33:52;7.30;;;1.10;;
37655;SDS011;23498;50.958;3.124;2024-03-23T10:36:19;12.43;;;1.77;;
37655;SDS011;23498;50.958;3.124;2024-03-23T10:38:46;8.05;;;1.48;;
37655;SDS011;23498;50.958;3.124;2024-03-23T10:41:12;4.50;;;1.65;;
37655;SDS011;23498;50.958;3.124;2024-03-23T10:43:38;6.78;;;1.55;;
37655;SDS011;23498;50.958;3.124;2024-03-23T10:46:05;6.65;;;1.50;;
37655;SDS011;23498;50.958;3.124;2024-03-23T10:48:32;4.47;;;1.80;;
37655;SDS011;23498;50.958;3.124;2024-03-23T10:50:58;6.40;;;1.55;;
37655;SDS011;23498;50.958;3.124;2024-03-23T10:53:28;7.95;;;1.90;;
37655;SDS011;23498;50.958;3.124;2024-03-23T10:55:55;6.65;;;1.40;;
37655;SDS011;23498;50.958;3.124;2024-03-23T10:58:26;8.73;;;1.52;;
37655;SDS011;23498;50.958;3.124;2024-03-23T11:03:32;6.20;;;1.35;;
37655;SDS011;23498;50.958;3.124;2024-03-23T11:05:59;8.88;;;1.50;;
37655;SDS011;23498;50.958;3.124;2024-03-23T11:08:38;5.38;;;1.10;;
37655;SDS011;23498;50.958;3.124;2024-03-23T11:13:43;6.38;;;1.50;;
37655;SDS011;23498;50.958;3.124;2024-03-23T11:16:12;8.32;;;1.60;;
37655;SDS011;23498;50.958;3.124;2024-03-23T11:18:39;5.15;;;1.10;;
37655;SDS011;23498;50.958;3.124;2024-03-23T11:21:06;8.10;;;1.77;;
37655;SDS011;23498;50.958;3.124;2024-03-23T11:23:32;5.82;;;1.38;;
37655;SDS011;23498;50.958;3.124;2024-03-23T11:25:58;9.73;;;1.60;;
37655;SDS011;23498;50.958;3.124;2024-03-23T11:28:24;8.02;;;1.40;;
37655;SDS011;23498;50.958;3.124;2024-03-23T11:30:50;7.25;;;1.88;;
37655;SDS011;23498;50.958;3.124;2024-03-23T11:33:16;5.15;;;1.42;;
37655;SDS011;23498;50.958;3.124;2024-03-23T11:35:43;3.10;;;1.30;;
37655;SDS011;23498;50.958;3.124;2024-03-23T11:58:09;6.75;;;1.27;;
37655;SDS011;23498;50.958;3.124;2024-03-23T12:00:35;5.22;;;1.58;;
37655;SDS011;23498;50.958;3.124;2024-03-23T12:03:02;4.97;;;1.00;;
37655;SDS011;23498;50.958;3.124;2024-03-23T12:05:28;6.78;;;1.73;;
37655;SDS011;23498;50.958;3.124;2024-03-23T12:07:55;5.03;;;1.58;;
37655;SDS011;23498;50.958;3.124;2024-03-23T12:10:21;4.03;;;1.35;;
37655;SDS011;23498;50.958;3.124;2024-03-23T12:12:59;6.25;;;1.30;;
37655;SDS011;23498;50.958;3.124;2024-03-23T12:15:25;3.97;;;0.90;;
37655;SDS011;23498;50.958;3.124;2024-03-23T12:17:51;4.55;;;1.17;;
37655;SDS011;23498;50.958;3.124;2024-03-23T12:20:17;5.88;;;1.23;;
37655;SDS011;23498;50.958;3.124;2024-03-23T12:22:43;4.28;;;1.23;;
37655;SDS011;23498;50.958;3.124;2024-03-23T12:25:10;5.20;;;0.80;;
37655;SDS011;23498;50.958;3.124;2024-03-23T12:27:36;6.38;;;0.77;;
37655;SDS011;23498;50.958;3.124;2024-03-23T12:30:02;5.70;;;1.30;;
37655;SDS011;23498;50.958;3.124;2024-03-23T12:32:29;6.93;;;1.73;;
37655;SDS011;23498;50.958;3.124;2024-03-23T12:34:55;3.97;;;1.30;;
37655;SDS011;23498;50.958;3.124;2024-03-23T12:37:21;3.67;;;1.17;;
37655;SDS011;23498;50.958;3.124;2024-03-23T12:39:47;7.45;;;1.25;;
37655;SDS011;23498;50.958;3.124;2024-03-23T12:42:13;5.55;;;1.30;;
37655;SDS011;23498;50.958;3.124;2024-03-23T12:44:40;5.72;;;1.60;;
37655;SDS011;23498;50.958;3.124;2024-03-23T12:47:06;6.80;;;1.55;;
37655;SDS011;23498;50.958;3.124;2024-03-23T12:49:32;6.88;;;2.00;;
37655;SDS011;23498;50.958;3.124;2024-03-23T12:51:58;6.15;;;1.63;;
37655;SDS011;23498;50.958;3.124;2024-03-23T12:54:24;7.55;;;1.60;;
37655;SDS011;23498;50.958;3.124;2024-03-23T12:56:51;2.53;;;1.08;;
37655;SDS011;23498;50.958;3.124;2024-03-23T12:59:17;4.05;;;1.73;;
37655;SDS011;23498;50.958;3.124;2024-03-23T13:01:43;5.65;;;1.50;;
37655;SDS011;23498;50.958;3.124;2024-03-23T13:04:09;5.85;;;1.33;;
37655;SDS011;23498;50.958;3.124;2024-03-23T13:06:38;5.07;;;1.27;;
37655;SDS011;23498;50.958;3.124;2024-03-23T13:09:04;4.93;;;1.20;;
37655;SDS011;23498;50.958;3.124;2024-03-23T13:11:31;4.55;;;1.20;;
37655;SDS011;23498;50.958;3.124;2024-03-23T13:13:57;4.68;;;1.33;;
37655;SDS011;23498;50.958;3.124;2024-03-23T13:16:23;5.50;;;1.00;;
37655;SDS011;23498;50.958;3.124;2024-03-23T13:18:49;5.15;;;1.17;;
37655;SDS011;23498;50.958;3.124;2024-03-23T13:21:15;5.25;;;1.10;;
37655;SDS011;23498;50.958;3.124;2024-03-23T13:23:41;6.88;;;1.45;;
37655;SDS011;23498;50.958;3.124;2024-03-23T13:26:10;4.28;;;1.33;;
37655;SDS011;23498;50.958;3.124;2024-03-23T13:28:36;9.13;;;1.25;;
37655;SDS011;23498;50.958;3.124;2024-03-23T13:31:02;6.82;;;1.80;;
37655;SDS011;23498;50.958;3.124;2024-03-23T13:33:31;5.32;;;1.08;;
37655;SDS011;23498;50.958;3.124;2024-03-23T13:35:57;6.55;;;1.27;;
37655;SDS011;23498;50.958;3.124;2024-03-23T13:38:24;6.72;;;1.67;;
37655;SDS011;23498;50.958;3.124;2024-03-23T13:40:53;11.30;;;1.75;;
37655;SDS011;23498;50.958;3.124;2024-03-23T13:43:21;8.70;;;1.77;;
37655;SDS011;23498;50.958;3.124;2024-03-23T13:45:48;6.53;;;1.08;;
37655;SDS011;23498;50.958;3.124;2024-03-23T13:58:35;8.60;;;1.70;;
37655;SDS011;23498;50.958;3.124;2024-03-23T14:01:01;6.53;;;1.40;;
37655;SDS011;23498;50.958;3.124;2024-03-23T14:03:27;6.97;;;1.63;;
37655;SDS011;23498;50.958;3.124;2024-03-23T14:05:57;8.07;;;1.85;;
37655;SDS011;23498;50.958;3.124;2024-03-23T14:08:23;5.38;;;1.70;;
37655;SDS011;23498;50.958;3.124;2024-03-23T14:10:49;14.18;;;3.58;;
37655;SDS011;23498;50.958;3.124;2024-03-23T14:13:16;7.43;;;1.58;;
37655;SDS011;23498;50.958;3.124;2024-03-23T14:15:43;4.97;;;1.27;;
37655;SDS011;23498;50.958;3.124;2024-03-23T14:18:09;7.70;;;1.98;;
37655;SDS011;23498;50.958;3.124;2024-03-23T14:20:35;3.22;;;1.30;;
37655;SDS011;23498;50.958;3.124;2024-03-23T14:23:01;6.90;;;1.08;;
37655;SDS011;23498;50.958;3.124;2024-03-23T14:25:27;6.00;;;1.40;;
37655;SDS011;23498;50.958;3.124;2024-03-23T14:27:54;5.88;;;1.55;;
37655;SDS011;23498;50.958;3.124;2024-03-23T14:30:20;2.40;;;0.90;;
37655;SDS011;23498;50.958;3.124;2024-03-23T14:32:46;4.20;;;0.80;;
37655;SDS011;23498;50.958;3.124;2024-03-23T14:35:12;3.28;;;0.85;;
37655;SDS011;23498;50.958;3.124;2024-03-23T14:37:38;6.38;;;1.30;;
37655;SDS011;23498;50.958;3.124;2024-03-23T14:40:07;6.75;;;1.48;;
37655;SDS011;23498;50.958;3.124;2024-03-23T14:42:33;5.10;;;1.27;;
37655;SDS011;23498;50.958;3.124;2024-03-23T14:44:59;8.48;;;1.45;;
37655;SDS011;23498;50.958;3.124;2024-03-23T14:47:25;4.93;;;1.10;;
37655;SDS011;23498;50.958;3.124;2024-03-23T14:49:51;4.97;;;1.15;;
37655;SDS011;23498;50.958;3.124;2024-03-23T14:52:17;6.90;;;1.50;;
37655;SDS011;23498;50.958;3.124;2024-03-23T14:54:46;7.45;;;1.50;;
37655;SDS011;23498;50.958;3.124;2024-03-23T14:57:12;8.80;;;1.30;;
37655;SDS011;23498;50.958;3.124;2024-03-23T14:59:38;7.72;;;1.55;;
37655;SDS011;23498;50.958;3.124;2024-03-23T15:02:05;5.75;;;1.40;;
37655;SDS011;23498;50.958;3.124;2024-03-23T15:04:31;6.05;;;1.08;;
37655;SDS011;23498;50.958;3.124;2024-03-23T15:06:57;7.72;;;1.50;;
37655;SDS011;23498;50.958;3.124;2024-03-23T15:09:23;7.22;;;1.45;;
37655;SDS011;23498;50.958;3.124;2024-03-23T15:11:49;5.45;;;1.13;;
37655;SDS011;23498;50.958;3.124;2024-03-23T15:14:15;5.18;;;1.30;;
37655;SDS011;23498;50.958;3.124;2024-03-23T15:16:42;6.03;;;1.20;;
37655;SDS011;23498;50.958;3.124;2024-03-23T15:19:08;5.80;;;1.13;;
37655;SDS011;23498;50.958;3.124;2024-03-23T15:21:34;7.53;;;1.50;;
37655;SDS011;23498;50.958;3.124;2024-03-23T15:24:00;7.97;;;2.13;;
37655;SDS011;23498;50.958;3.124;2024-03-23T15:26:26;6.20;;;1.45;;
37655;SDS011;23498;50.958;3.124;2024-03-23T15:28:52;5.32;;;1.10;;
37655;SDS011;23498;50.958;3.124;2024-03-23T15:31:21;8.27;;;1.58;;
37655;SDS011;23498;50.958;3.124;2024-03-23T15:33:47;8.10;;;1.60;;
37655;SDS011;23498;50.958;3.124;2024-03-23T15:36:13;5.55;;;1.13;;
37655;SDS011;23498;50.958;3.124;2024-03-23T15:38:40;8.55;;;1.83;;
37655;SDS011;23498;50.958;3.124;2024-03-23T15:41:06;10.57;;;1.58;;
37655;SDS011;23498;50.958;3.124;2024-03-23T15:43:37;14.68;;;2.75;;
37655;SDS011;23498;50.958;3.124;2024-03-23T15:46:04;8.77;;;1.20;;
37655;SDS011;23498;50.958;3.124;2024-03-23T15:51:04;7.80;;;1.55;;
37655;SDS011;23498;50.958;3.124;2024-03-23T15:53:33;9.00;;;1.88;;
37655;SDS011;23498;50.958;3.124;2024-03-23T15:56:02;6.18;;;1.30;;
37655;SDS011;23498;50.958;3.124;2024-03-23T15:58:29;8.50;;;1.90;;
37655;SDS011;23498;50.958;3.124;2024-03-23T16:03:21;7.45;;;1.45;;
37655;SDS011;23498;50.958;3.124;2024-03-23T16:05:51;6.47;;;1.20;;
37655;SDS011;23498;50.958;3.124;2024-03-23T16:08:17;6.28;;;1.25;;
37655;SDS011;23498;50.958;3.124;2024-03-23T16:10:43;7.65;;;1.58;;
37655;SDS011;23498;50.958;3.124;2024-03-23T16:13:09;7.30;;;1.90;;
37655;SDS011;23498;50.958;3.124;2024-03-23T16:15:35;8.75;;;1.70;;